Terminal Aerodrome Forecast
Issued by NWS

Home | Current Version | Previous Version | Text Only | Print | Product List | Glossary On
Versions: 1 2 3 4 5 6 7 8 9 10 11 12
796
FTUS44 KEPZ 071720
TAFDMN
TAF
KDMN 071720Z 0718/0818 27013KT P6SM BKN100 OVC200
     FM072000 27012G18KT P6SM BKN100
     FM080900 07009KT P6SM BKN050=

USA.gov is the U.S. government's official web portal to all federal, state and local government web resources and services.